sensor_id;sensor_type;location;lat;lon;timestamp;P1;durP1;ratioP1;P2;durP2;ratioP2
22284;SDS011;11311;52.192;20.900;2022-12-07T00:01:56;99.00;;;56.97;;
22284;SDS011;11311;52.192;20.900;2022-12-07T00:04:24;103.72;;;58.00;;
22284;SDS011;11311;52.192;20.900;2022-12-07T00:06:53;107.60;;;59.90;;
22284;SDS011;11311;52.192;20.900;2022-12-07T00:09:22;130.27;;;65.32;;
22284;SDS011;11311;52.192;20.900;2022-12-07T00:11:50;117.13;;;63.72;;
22284;SDS011;11311;52.192;20.900;2022-12-07T00:14:20;117.93;;;63.88;;
22284;SDS011;11311;52.192;20.900;2022-12-07T00:16:49;141.77;;;65.45;;
22284;SDS011;11311;52.192;20.900;2022-12-07T00:19:19;146.98;;;68.93;;
22284;SDS011;11311;52.192;20.900;2022-12-07T00:21:48;139.43;;;66.97;;
22284;SDS011;11311;52.192;20.900;2022-12-07T00:24:17;125.60;;;68.15;;
22284;SDS011;11311;52.192;20.900;2022-12-07T00:26:46;161.43;;;76.88;;
22284;SDS011;11311;52.192;20.900;2022-12-07T00:29:15;161.82;;;73.15;;
22284;SDS011;11311;52.192;20.900;2022-12-07T00:31:44;114.32;;;65.70;;
22284;SDS011;11311;52.192;20.900;2022-12-07T00:34:14;128.55;;;66.00;;
22284;SDS011;11311;52.192;20.900;2022-12-07T00:36:45;128.93;;;70.40;;
22284;SDS011;11311;52.192;20.900;2022-12-07T00:39:14;132.07;;;69.00;;
22284;SDS011;11311;52.192;20.900;2022-12-07T00:41:43;128.60;;;64.93;;
22284;SDS011;11311;52.192;20.900;2022-12-07T00:44:12;125.47;;;68.68;;
22284;SDS011;11311;52.192;20.900;2022-12-07T00:46:40;111.32;;;63.30;;
22284;SDS011;11311;52.192;20.900;2022-12-07T00:49:09;135.18;;;69.78;;
22284;SDS011;11311;52.192;20.900;2022-12-07T00:51:37;143.50;;;70.93;;
22284;SDS011;11311;52.192;20.900;2022-12-07T00:54:07;144.32;;;70.72;;
22284;SDS011;11311;52.192;20.900;2022-12-07T00:56:37;123.57;;;65.22;;
22284;SDS011;11311;52.192;20.900;2022-12-07T00:59:06;112.90;;;61.47;;
22284;SDS011;11311;52.192;20.900;2022-12-07T01:01:35;103.00;;;58.80;;
22284;SDS011;11311;52.192;20.900;2022-12-07T01:04:04;100.80;;;56.90;;
22284;SDS011;11311;52.192;20.900;2022-12-07T01:06:33;106.47;;;56.92;;
22284;SDS011;11311;52.192;20.900;2022-12-07T01:09:02;99.78;;;53.33;;
22284;SDS011;11311;52.192;20.900;2022-12-07T01:11:34;78.22;;;45.60;;
22284;SDS011;11311;52.192;20.900;2022-12-07T01:14:03;78.60;;;43.25;;
22284;SDS011;11311;52.192;20.900;2022-12-07T01:16:31;69.05;;;41.53;;
22284;SDS011;11311;52.192;20.900;2022-12-07T01:19:01;66.95;;;38.03;;
22284;SDS011;11311;52.192;20.900;2022-12-07T01:21:32;59.03;;;35.45;;
22284;SDS011;11311;52.192;20.900;2022-12-07T01:24:05;59.33;;;32.85;;
22284;SDS011;11311;52.192;20.900;2022-12-07T01:26:36;57.03;;;33.05;;
22284;SDS011;11311;52.192;20.900;2022-12-07T01:29:05;48.88;;;28.00;;
22284;SDS011;11311;52.192;20.900;2022-12-07T01:31:33;43.13;;;28.02;;
22284;SDS011;11311;52.192;20.900;2022-12-07T01:34:02;41.00;;;24.85;;
22284;SDS011;11311;52.192;20.900;2022-12-07T01:36:31;33.00;;;22.02;;
22284;SDS011;11311;52.192;20.900;2022-12-07T01:39:03;31.08;;;20.60;;
22284;SDS011;11311;52.192;20.900;2022-12-07T01:41:34;35.13;;;23.25;;
22284;SDS011;11311;52.192;20.900;2022-12-07T01:44:08;34.83;;;21.38;;
22284;SDS011;11311;52.192;20.900;2022-12-07T01:46:40;27.73;;;19.63;;
22284;SDS011;11311;52.192;20.900;2022-12-07T01:49:10;30.58;;;19.83;;
22284;SDS011;11311;52.192;20.900;2022-12-07T01:51:43;29.88;;;20.95;;
22284;SDS011;11311;52.192;20.900;2022-12-07T01:54:12;30.08;;;21.48;;
22284;SDS011;11311;52.192;20.900;2022-12-07T01:56:45;36.60;;;24.67;;
22284;SDS011;11311;52.192;20.900;2022-12-07T01:59:18;30.95;;;22.52;;
22284;SDS011;11311;52.192;20.900;2022-12-07T02:01:46;36.35;;;23.77;;
22284;SDS011;11311;52.192;20.900;2022-12-07T02:04:15;40.00;;;26.48;;
22284;SDS011;11311;52.192;20.900;2022-12-07T02:06:44;36.72;;;23.95;;
22284;SDS011;11311;52.192;20.900;2022-12-07T02:09:13;36.58;;;23.92;;
22284;SDS011;11311;52.192;20.900;2022-12-07T02:11:43;43.47;;;24.20;;
22284;SDS011;11311;52.192;20.900;2022-12-07T02:14:12;38.53;;;22.83;;
22284;SDS011;11311;52.192;20.900;2022-12-07T02:16:44;34.97;;;25.15;;
22284;SDS011;11311;52.192;20.900;2022-12-07T02:22:32;33.45;;;21.58;;
22284;SDS011;11311;52.192;20.900;2022-12-07T02:25:24;34.15;;;21.48;;
22284;SDS011;11311;52.192;20.900;2022-12-07T02:28:01;36.85;;;22.23;;
22284;SDS011;11311;52.192;20.900;2022-12-07T02:30:34;30.77;;;20.40;;
22284;SDS011;11311;52.192;20.900;2022-12-07T02:33:05;27.88;;;19.17;;
22284;SDS011;11311;52.192;20.900;2022-12-07T02:35:36;27.02;;;20.17;;
22284;SDS011;11311;52.192;20.900;2022-12-07T02:38:09;28.20;;;19.38;;
22284;SDS011;11311;52.192;20.900;2022-12-07T02:40:43;31.73;;;22.08;;
22284;SDS011;11311;52.192;20.900;2022-12-07T02:43:14;27.20;;;19.80;;
22284;SDS011;11311;52.192;20.900;2022-12-07T02:45:47;31.15;;;21.80;;
22284;SDS011;11311;52.192;20.900;2022-12-07T02:48:16;28.75;;;20.05;;
22284;SDS011;11311;52.192;20.900;2022-12-07T02:50:48;26.83;;;18.95;;
22284;SDS011;11311;52.192;20.900;2022-12-07T02:53:30;28.38;;;20.60;;
22284;SDS011;11311;52.192;20.900;2022-12-07T02:56:00;26.58;;;18.83;;
22284;SDS011;11311;52.192;20.900;2022-12-07T02:58:32;24.60;;;17.50;;
22284;SDS011;11311;52.192;20.900;2022-12-07T03:01:11;27.60;;;19.08;;
22284;SDS011;11311;52.192;20.900;2022-12-07T03:03:46;27.85;;;17.85;;
22284;SDS011;11311;52.192;20.900;2022-12-07T03:06:19;22.77;;;17.15;;
22284;SDS011;11311;52.192;20.900;2022-12-07T03:08:51;26.85;;;17.83;;
22284;SDS011;11311;52.192;20.900;2022-12-07T03:11:28;19.67;;;14.43;;
22284;SDS011;11311;52.192;20.900;2022-12-07T03:13:59;25.10;;;17.58;;
22284;SDS011;11311;52.192;20.900;2022-12-07T03:16:33;25.38;;;16.42;;
22284;SDS011;11311;52.192;20.900;2022-12-07T03:19:05;17.90;;;13.10;;
22284;SDS011;11311;52.192;20.900;2022-12-07T03:21:37;17.92;;;13.75;;
22284;SDS011;11311;52.192;20.900;2022-12-07T03:24:08;18.75;;;14.02;;
22284;SDS011;11311;52.192;20.900;2022-12-07T03:26:40;16.85;;;12.65;;
22284;SDS011;11311;52.192;20.900;2022-12-07T03:29:11;15.20;;;12.27;;
22284;SDS011;11311;52.192;20.900;2022-12-07T03:31:43;15.32;;;12.43;;
22284;SDS011;11311;52.192;20.900;2022-12-07T03:34:15;13.18;;;9.90;;
22284;SDS011;11311;52.192;20.900;2022-12-07T03:36:47;16.98;;;12.23;;
22284;SDS011;11311;52.192;20.900;2022-12-07T03:39:20;14.50;;;11.35;;
22284;SDS011;11311;52.192;20.900;2022-12-07T03:41:51;14.88;;;12.25;;
22284;SDS011;11311;52.192;20.900;2022-12-07T03:44:20;14.13;;;11.45;;
22284;SDS011;11311;52.192;20.900;2022-12-07T03:46:52;15.57;;;11.90;;
22284;SDS011;11311;52.192;20.900;2022-12-07T03:49:25;15.27;;;11.60;;
22284;SDS011;11311;52.192;20.900;2022-12-07T03:51:56;16.75;;;11.88;;
22284;SDS011;11311;52.192;20.900;2022-12-07T03:54:31;17.38;;;11.35;;
22284;SDS011;11311;52.192;20.900;2022-12-07T03:57:02;18.83;;;13.40;;
22284;SDS011;11311;52.192;20.900;2022-12-07T03:59:31;20.48;;;14.93;;
22284;SDS011;11311;52.192;20.900;2022-12-07T04:02:04;20.25;;;14.68;;
22284;SDS011;11311;52.192;20.900;2022-12-07T04:04:33;19.23;;;15.57;;
22284;SDS011;11311;52.192;20.900;2022-12-07T04:07:02;22.08;;;15.90;;
22284;SDS011;11311;52.192;20.900;2022-12-07T04:09:31;24.48;;;17.70;;
22284;SDS011;11311;52.192;20.900;2022-12-07T04:12:00;24.88;;;18.50;;
22284;SDS011;11311;52.192;20.900;2022-12-07T04:14:29;24.05;;;20.25;;
22284;SDS011;11311;52.192;20.900;2022-12-07T04:16:58;26.05;;;18.83;;
22284;SDS011;11311;52.192;20.900;2022-12-07T04:19:29;23.65;;;17.67;;
22284;SDS011;11311;52.192;20.900;2022-12-07T04:21:59;20.35;;;15.70;;
22284;SDS011;11311;52.192;20.900;2022-12-07T04:24:29;20.40;;;16.13;;
22284;SDS011;11311;52.192;20.900;2022-12-07T04:26:58;24.58;;;17.92;;
22284;SDS011;11311;52.192;20.900;2022-12-07T04:29:27;24.35;;;18.30;;
22284;SDS011;11311;52.192;20.900;2022-12-07T04:31:56;23.90;;;15.93;;
22284;SDS011;11311;52.192;20.900;2022-12-07T04:34:24;22.88;;;17.10;;
22284;SDS011;11311;52.192;20.900;2022-12-07T04:36:54;23.05;;;16.02;;
22284;SDS011;11311;52.192;20.900;2022-12-07T04:39:24;18.10;;;15.35;;
22284;SDS011;11311;52.192;20.900;2022-12-07T04:41:54;24.15;;;16.98;;
22284;SDS011;11311;52.192;20.900;2022-12-07T04:44:23;24.83;;;18.33;;
22284;SDS011;11311;52.192;20.900;2022-12-07T04:46:52;21.10;;;14.60;;
22284;SDS011;11311;52.192;20.900;2022-12-07T04:49:22;23.10;;;16.60;;
22284;SDS011;11311;52.192;20.900;2022-12-07T04:51:52;21.33;;;16.17;;
22284;SDS011;11311;52.192;20.900;2022-12-07T04:54:22;18.35;;;14.70;;
22284;SDS011;11311;52.192;20.900;2022-12-07T04:56:51;20.67;;;15.57;;
22284;SDS011;11311;52.192;20.900;2022-12-07T04:59:20;21.25;;;15.32;;
22284;SDS011;11311;52.192;20.900;2022-12-07T05:01:48;18.42;;;14.23;;
22284;SDS011;11311;52.192;20.900;2022-12-07T05:04:17;16.80;;;12.43;;
22284;SDS011;11311;52.192;20.900;2022-12-07T05:06:46;20.27;;;14.10;;
22284;SDS011;11311;52.192;20.900;2022-12-07T05:09:15;18.20;;;13.93;;
22284;SDS011;11311;52.192;20.900;2022-12-07T05:11:45;23.23;;;14.45;;
22284;SDS011;11311;52.192;20.900;2022-12-07T05:16:44;20.88;;;12.18;;
22284;SDS011;11311;52.192;20.900;2022-12-07T05:19:14;16.63;;;12.82;;
22284;SDS011;11311;52.192;20.900;2022-12-07T05:21:43;19.00;;;13.82;;
22284;SDS011;11311;52.192;20.900;2022-12-07T05:24:13;16.92;;;12.90;;
22284;SDS011;11311;52.192;20.900;2022-12-07T05:26:45;16.95;;;13.65;;
22284;SDS011;11311;52.192;20.900;2022-12-07T05:29:15;20.85;;;13.95;;
22284;SDS011;11311;52.192;20.900;2022-12-07T05:31:44;21.60;;;14.70;;
22284;SDS011;11311;52.192;20.900;2022-12-07T05:34:13;18.25;;;14.20;;
22284;SDS011;11311;52.192;20.900;2022-12-07T05:36:42;22.45;;;14.25;;
22284;SDS011;11311;52.192;20.900;2022-12-07T05:39:10;20.90;;;15.25;;
22284;SDS011;11311;52.192;20.900;2022-12-07T05:41:39;20.73;;;15.05;;
22284;SDS011;11311;52.192;20.900;2022-12-07T05:44:27;20.80;;;14.88;;
22284;SDS011;11311;52.192;20.900;2022-12-07T05:49:24;20.20;;;13.50;;
22284;SDS011;11311;52.192;20.900;2022-12-07T05:51:53;19.73;;;14.52;;
22284;SDS011;11311;52.192;20.900;2022-12-07T05:54:21;19.60;;;14.85;;
22284;SDS011;11311;52.192;20.900;2022-12-07T05:56:50;21.83;;;14.40;;
22284;SDS011;11311;52.192;20.900;2022-12-07T05:59:19;19.27;;;14.55;;
22284;SDS011;11311;52.192;20.900;2022-12-07T06:06:48;22.30;;;15.45;;
22284;SDS011;11311;52.192;20.900;2022-12-07T06:09:17;21.27;;;14.32;;
22284;SDS011;11311;52.192;20.900;2022-12-07T06:11:47;19.38;;;11.52;;
22284;SDS011;11311;52.192;20.900;2022-12-07T06:14:33;21.38;;;15.18;;
22284;SDS011;11311;52.192;20.900;2022-12-07T06:17:03;20.73;;;15.10;;
22284;SDS011;11311;52.192;20.900;2022-12-07T06:19:32;21.48;;;14.48;;
22284;SDS011;11311;52.192;20.900;2022-12-07T06:22:02;24.23;;;15.50;;
22284;SDS011;11311;52.192;20.900;2022-12-07T06:24:31;22.52;;;15.10;;
22284;SDS011;11311;52.192;20.900;2022-12-07T06:27:00;23.73;;;15.90;;
22284;SDS011;11311;52.192;20.900;2022-12-07T06:29:29;21.73;;;15.32;;
22284;SDS011;11311;52.192;20.900;2022-12-07T06:31:58;24.92;;;16.17;;
22284;SDS011;11311;52.192;20.900;2022-12-07T06:34:28;29.67;;;17.45;;
22284;SDS011;11311;52.192;20.900;2022-12-07T06:36:57;26.95;;;17.30;;
22284;SDS011;11311;52.192;20.900;2022-12-07T06:39:26;26.23;;;15.55;;
22284;SDS011;11311;52.192;20.900;2022-12-07T06:44:25;28.02;;;17.52;;
22284;SDS011;11311;52.192;20.900;2022-12-07T06:46:53;28.55;;;17.50;;
22284;SDS011;11311;52.192;20.900;2022-12-07T06:49:44;24.00;;;16.30;;
22284;SDS011;11311;52.192;20.900;2022-12-07T06:52:13;26.13;;;18.00;;
22284;SDS011;11311;52.192;20.900;2022-12-07T06:54:42;25.23;;;16.98;;
22284;SDS011;11311;52.192;20.900;2022-12-07T06:57:11;23.75;;;17.10;;
22284;SDS011;11311;52.192;20.900;2022-12-07T06:59:40;24.20;;;17.45;;
22284;SDS011;11311;52.192;20.900;2022-12-07T07:02:09;27.23;;;19.20;;
22284;SDS011;11311;52.192;20.900;2022-12-07T07:04:38;26.20;;;17.75;;
22284;SDS011;11311;52.192;20.900;2022-12-07T07:07:08;24.63;;;16.58;;
22284;SDS011;11311;52.192;20.900;2022-12-07T07:12:05;24.17;;;16.42;;
22284;SDS011;11311;52.192;20.900;2022-12-07T07:14:34;27.80;;;18.10;;
22284;SDS011;11311;52.192;20.900;2022-12-07T07:17:03;30.20;;;19.65;;
22284;SDS011;11311;52.192;20.900;2022-12-07T07:19:31;30.48;;;18.60;;
22284;SDS011;11311;52.192;20.900;2022-12-07T07:22:01;28.02;;;20.83;;
22284;SDS011;11311;52.192;20.900;2022-12-07T07:24:31;36.57;;;22.57;;
22284;SDS011;11311;52.192;20.900;2022-12-07T07:27:00;35.88;;;22.58;;
22284;SDS011;11311;52.192;20.900;2022-12-07T07:29:29;34.80;;;20.73;;
22284;SDS011;11311;52.192;20.900;2022-12-07T07:31:58;42.10;;;22.92;;
22284;SDS011;11311;52.192;20.900;2022-12-07T07:34:32;41.00;;;26.17;;
22284;SDS011;11311;52.192;20.900;2022-12-07T07:37:01;40.17;;;22.77;;
22284;SDS011;11311;52.192;20.900;2022-12-07T07:39:32;36.13;;;23.67;;
22284;SDS011;11311;52.192;20.900;2022-12-07T07:42:00;35.08;;;23.17;;
22284;SDS011;11311;52.192;20.900;2022-12-07T07:44:32;31.63;;;22.23;;
22284;SDS011;11311;52.192;20.900;2022-12-07T07:47:01;36.00;;;22.27;;
22284;SDS011;11311;52.192;20.900;2022-12-07T07:49:30;32.63;;;22.27;;
22284;SDS011;11311;52.192;20.900;2022-12-07T07:51:59;31.27;;;21.20;;
22284;SDS011;11311;52.192;20.900;2022-12-07T07:54:27;29.42;;;19.73;;
22284;SDS011;11311;52.192;20.900;2022-12-07T07:56:58;31.05;;;22.50;;
22284;SDS011;11311;52.192;20.900;2022-12-07T07:59:26;35.90;;;23.92;;
22284;SDS011;11311;52.192;20.900;2022-12-07T08:01:56;25.40;;;18.08;;
22284;SDS011;11311;52.192;20.900;2022-12-07T08:04:24;36.80;;;21.92;;
22284;SDS011;11311;52.192;20.900;2022-12-07T08:06:53;39.47;;;19.95;;
22284;SDS011;11311;52.192;20.900;2022-12-07T08:09:22;34.35;;;20.50;;
22284;SDS011;11311;52.192;20.900;2022-12-07T08:11:51;33.03;;;20.90;;
22284;SDS011;11311;52.192;20.900;2022-12-07T08:14:21;40.03;;;22.33;;
22284;SDS011;11311;52.192;20.900;2022-12-07T08:16:50;41.05;;;23.73;;
22284;SDS011;11311;52.192;20.900;2022-12-07T08:19:19;37.42;;;23.90;;
22284;SDS011;11311;52.192;20.900;2022-12-07T08:21:47;47.72;;;26.13;;
22284;SDS011;11311;52.192;20.900;2022-12-07T08:24:16;41.65;;;22.67;;
22284;SDS011;11311;52.192;20.900;2022-12-07T08:26:45;45.13;;;26.45;;
22284;SDS011;11311;52.192;20.900;2022-12-07T08:29:14;45.40;;;26.90;;
22284;SDS011;11311;52.192;20.900;2022-12-07T08:31:43;44.38;;;26.40;;
22284;SDS011;11311;52.192;20.900;2022-12-07T08:34:12;43.17;;;26.88;;
22284;SDS011;11311;52.192;20.900;2022-12-07T08:36:41;44.25;;;27.02;;
22284;SDS011;11311;52.192;20.900;2022-12-07T08:39:10;53.25;;;28.77;;
22284;SDS011;11311;52.192;20.900;2022-12-07T08:41:59;34.47;;;24.30;;
22284;SDS011;11311;52.192;20.900;2022-12-07T08:44:27;45.80;;;25.98;;
22284;SDS011;11311;52.192;20.900;2022-12-07T08:46:58;40.78;;;25.05;;
22284;SDS011;11311;52.192;20.900;2022-12-07T08:49:30;40.40;;;21.33;;
22284;SDS011;11311;52.192;20.900;2022-12-07T08:52:01;34.33;;;21.33;;
22284;SDS011;11311;52.192;20.900;2022-12-07T08:54:30;35.85;;;20.58;;
22284;SDS011;11311;52.192;20.900;2022-12-07T08:57:02;30.83;;;18.42;;
22284;SDS011;11311;52.192;20.900;2022-12-07T08:59:31;31.23;;;20.83;;
22284;SDS011;11311;52.192;20.900;2022-12-07T09:04:31;28.30;;;19.17;;
22284;SDS011;11311;52.192;20.900;2022-12-07T09:07:00;31.70;;;20.13;;
22284;SDS011;11311;52.192;20.900;2022-12-07T09:09:30;31.38;;;20.00;;
22284;SDS011;11311;52.192;20.900;2022-12-07T09:11:58;29.98;;;18.92;;
22284;SDS011;11311;52.192;20.900;2022-12-07T09:14:27;33.13;;;20.92;;
22284;SDS011;11311;52.192;20.900;2022-12-07T09:17:05;29.42;;;20.67;;
22284;SDS011;11311;52.192;20.900;2022-12-07T09:19:34;34.67;;;20.33;;
22284;SDS011;11311;52.192;20.900;2022-12-07T09:22:04;34.85;;;21.17;;
22284;SDS011;11311;52.192;20.900;2022-12-07T09:24:33;34.10;;;21.33;;
22284;SDS011;11311;52.192;20.900;2022-12-07T09:27:02;32.33;;;21.48;;
22284;SDS011;11311;52.192;20.900;2022-12-07T09:29:31;33.97;;;21.05;;
22284;SDS011;11311;52.192;20.900;2022-12-07T09:32:00;37.45;;;20.35;;
22284;SDS011;11311;52.192;20.900;2022-12-07T09:34:38;32.53;;;20.67;;
22284;SDS011;11311;52.192;20.900;2022-12-07T09:37:07;32.92;;;21.17;;
22284;SDS011;11311;52.192;20.900;2022-12-07T09:39:37;32.97;;;20.15;;
22284;SDS011;11311;52.192;20.900;2022-12-07T09:42:19;28.60;;;19.23;;
22284;SDS011;11311;52.192;20.900;2022-12-07T09:44:55;29.02;;;18.88;;
22284;SDS011;11311;52.192;20.900;2022-12-07T09:49:58;25.85;;;17.75;;
22284;SDS011;11311;52.192;20.900;2022-12-07T09:52:32;30.05;;;17.75;;
22284;SDS011;11311;52.192;20.900;2022-12-07T09:55:09;35.72;;;18.35;;
22284;SDS011;11311;52.192;20.900;2022-12-07T09:57:40;29.52;;;19.02;;
22284;SDS011;11311;52.192;20.900;2022-12-07T10:02:41;29.67;;;17.98;;
22284;SDS011;11311;52.192;20.900;2022-12-07T10:05:14;29.48;;;18.65;;
22284;SDS011;11311;52.192;20.900;2022-12-07T10:07:50;27.80;;;16.25;;
22284;SDS011;11311;52.192;20.900;2022-12-07T10:10:22;23.00;;;13.98;;
22284;SDS011;11311;52.192;20.900;2022-12-07T10:12:54;29.10;;;17.42;;
22284;SDS011;11311;52.192;20.900;2022-12-07T10:21:08;24.77;;;16.90;;
22284;SDS011;11311;52.192;20.900;2022-12-07T10:23:40;24.00;;;16.98;;
22284;SDS011;11311;52.192;20.900;2022-12-07T10:26:19;23.85;;;15.50;;
22284;SDS011;11311;52.192;20.900;2022-12-07T10:28:49;24.47;;;16.53;;
22284;SDS011;11311;52.192;20.900;2022-12-07T10:31:18;26.85;;;18.38;;
22284;SDS011;11311;52.192;20.900;2022-12-07T10:33:49;24.58;;;17.35;;
22284;SDS011;11311;52.192;20.900;2022-12-07T10:36:22;24.60;;;15.40;;
22284;SDS011;11311;52.192;20.900;2022-12-07T10:38:52;19.80;;;14.85;;
22284;SDS011;11311;52.192;20.900;2022-12-07T10:41:27;22.85;;;18.00;;
22284;SDS011;11311;52.192;20.900;2022-12-07T10:43:56;28.98;;;17.40;;
22284;SDS011;11311;52.192;20.900;2022-12-07T10:52:26;21.23;;;14.20;;
22284;SDS011;11311;52.192;20.900;2022-12-07T10:55:16;21.17;;;15.32;;
22284;SDS011;11311;52.192;20.900;2022-12-07T10:57:59;26.23;;;17.30;;
22284;SDS011;11311;52.192;20.900;2022-12-07T11:00:35;21.58;;;16.40;;
22284;SDS011;11311;52.192;20.900;2022-12-07T11:03:15;24.20;;;17.23;;
22284;SDS011;11311;52.192;20.900;2022-12-07T11:06:01;23.67;;;16.45;;
22284;SDS011;11311;52.192;20.900;2022-12-07T11:08:43;21.17;;;16.63;;
22284;SDS011;11311;52.192;20.900;2022-12-07T11:11:16;24.50;;;16.98;;
22284;SDS011;11311;52.192;20.900;2022-12-07T11:13:51;24.92;;;19.42;;
22284;SDS011;11311;52.192;20.900;2022-12-07T11:16:28;26.17;;;18.77;;
22284;SDS011;11311;52.192;20.900;2022-12-07T11:19:12;23.83;;;19.45;;
22284;SDS011;11311;52.192;20.900;2022-12-07T11:26:59;23.08;;;17.48;;
22284;SDS011;11311;52.192;20.900;2022-12-07T11:29:44;23.00;;;17.70;;
22284;SDS011;11311;52.192;20.900;2022-12-07T11:32:19;23.70;;;19.02;;
22284;SDS011;11311;52.192;20.900;2022-12-07T11:34:53;29.35;;;19.45;;
22284;SDS011;11311;52.192;20.900;2022-12-07T11:37:28;23.23;;;19.35;;
22284;SDS011;11311;52.192;20.900;2022-12-07T11:40:11;23.48;;;17.48;;
22284;SDS011;11311;52.192;20.900;2022-12-07T11:42:45;23.42;;;17.77;;
22284;SDS011;11311;52.192;20.900;2022-12-07T11:45:17;23.95;;;18.67;;
22284;SDS011;11311;52.192;20.900;2022-12-07T11:47:51;24.85;;;20.60;;
22284;SDS011;11311;52.192;20.900;2022-12-07T11:50:26;24.88;;;20.23;;
22284;SDS011;11311;52.192;20.900;2022-12-07T11:52:59;24.30;;;18.83;;
22284;SDS011;11311;52.192;20.900;2022-12-07T11:55:32;25.60;;;18.30;;
22284;SDS011;11311;52.192;20.900;2022-12-07T11:58:14;25.60;;;18.65;;
22284;SDS011;11311;52.192;20.900;2022-12-07T12:00:49;23.70;;;18.52;;
22284;SDS011;11311;52.192;20.900;2022-12-07T12:03:22;24.50;;;17.95;;
22284;SDS011;11311;52.192;20.900;2022-12-07T12:05:57;25.15;;;19.17;;
22284;SDS011;11311;52.192;20.900;2022-12-07T12:08:27;24.70;;;18.25;;
22284;SDS011;11311;52.192;20.900;2022-12-07T12:11:22;27.95;;;20.60;;
22284;SDS011;11311;52.192;20.900;2022-12-07T12:14:04;29.17;;;19.73;;
22284;SDS011;11311;52.192;20.900;2022-12-07T12:17:00;18.65;;;16.27;;
22284;SDS011;11311;52.192;20.900;2022-12-07T12:19:38;21.17;;;17.02;;
22284;SDS011;11311;52.192;20.900;2022-12-07T12:22:11;22.33;;;18.65;;
22284;SDS011;11311;52.192;20.900;2022-12-07T12:24:42;23.92;;;18.85;;
22284;SDS011;11311;52.192;20.900;2022-12-07T12:27:18;26.00;;;19.60;;
22284;SDS011;11311;52.192;20.900;2022-12-07T12:29:52;27.33;;;19.95;;
22284;SDS011;11311;52.192;20.900;2022-12-07T12:32:22;25.67;;;19.90;;
22284;SDS011;11311;52.192;20.900;2022-12-07T12:37:40;24.30;;;19.88;;
22284;SDS011;11311;52.192;20.900;2022-12-07T12:46:37;24.58;;;20.33;;
22284;SDS011;11311;52.192;20.900;2022-12-07T12:52:46;21.80;;;17.25;;
22284;SDS011;11311;52.192;20.900;2022-12-07T12:58:42;22.13;;;15.43;;
22284;SDS011;11311;52.192;20.900;2022-12-07T13:01:36;20.98;;;17.08;;
22284;SDS011;11311;52.192;20.900;2022-12-07T13:10:21;19.33;;;15.50;;
22284;SDS011;11311;52.192;20.900;2022-12-07T13:13:28;18.25;;;15.23;;
22284;SDS011;11311;52.192;20.900;2022-12-07T13:19:02;13.63;;;11.75;;
22284;SDS011;11311;52.192;20.900;2022-12-07T13:21:41;32.60;;;14.48;;
22284;SDS011;11311;52.192;20.900;2022-12-07T13:24:10;18.83;;;14.05;;
22284;SDS011;11311;52.192;20.900;2022-12-07T13:26:41;16.40;;;13.65;;
22284;SDS011;11311;52.192;20.900;2022-12-07T13:31:40;23.63;;;14.40;;
22284;SDS011;11311;52.192;20.900;2022-12-07T13:34:30;16.23;;;14.23;;
22284;SDS011;11311;52.192;20.900;2022-12-07T13:37:00;19.90;;;16.33;;
22284;SDS011;11311;52.192;20.900;2022-12-07T13:39:32;21.02;;;15.68;;
22284;SDS011;11311;52.192;20.900;2022-12-07T13:42:07;22.20;;;16.23;;
22284;SDS011;11311;52.192;20.900;2022-12-07T13:44:41;18.65;;;11.88;;
22284;SDS011;11311;52.192;20.900;2022-12-07T13:47:12;18.45;;;15.88;;
22284;SDS011;11311;52.192;20.900;2022-12-07T13:49:48;23.38;;;16.92;;
22284;SDS011;11311;52.192;20.900;2022-12-07T13:52:20;19.95;;;17.05;;
22284;SDS011;11311;52.192;20.900;2022-12-07T13:54:55;22.58;;;17.02;;
22284;SDS011;11311;52.192;20.900;2022-12-07T13:57:25;21.17;;;16.27;;
22284;SDS011;11311;52.192;20.900;2022-12-07T13:59:55;20.00;;;16.83;;
22284;SDS011;11311;52.192;20.900;2022-12-07T14:02:27;20.60;;;17.23;;
22284;SDS011;11311;52.192;20.900;2022-12-07T14:05:09;19.60;;;15.40;;
22284;SDS011;11311;52.192;20.900;2022-12-07T14:07:48;20.67;;;16.40;;
22284;SDS011;11311;52.192;20.900;2022-12-07T14:10:24;20.10;;;15.45;;
22284;SDS011;11311;52.192;20.900;2022-12-07T14:12:54;18.33;;;14.80;;
22284;SDS011;11311;52.192;20.900;2022-12-07T14:15:24;21.52;;;18.52;;
22284;SDS011;11311;52.192;20.900;2022-12-07T14:17:55;22.38;;;18.20;;
22284;SDS011;11311;52.192;20.900;2022-12-07T14:20:30;24.20;;;18.30;;
22284;SDS011;11311;52.192;20.900;2022-12-07T14:23:00;24.10;;;18.90;;
22284;SDS011;11311;52.192;20.900;2022-12-07T14:25:44;22.45;;;18.17;;
22284;SDS011;11311;52.192;20.900;2022-12-07T14:28:25;20.00;;;17.80;;
22284;SDS011;11311;52.192;20.900;2022-12-07T14:30:55;22.70;;;17.20;;
22284;SDS011;11311;52.192;20.900;2022-12-07T14:33:24;26.98;;;20.77;;
22284;SDS011;11311;52.192;20.900;2022-12-07T14:35:55;30.02;;;21.23;;
22284;SDS011;11311;52.192;20.900;2022-12-07T14:38:26;26.80;;;21.20;;
22284;SDS011;11311;52.192;20.900;2022-12-07T14:40:55;26.25;;;20.45;;
22284;SDS011;11311;52.192;20.900;2022-12-07T14:43:44;26.85;;;20.20;;
22284;SDS011;11311;52.192;20.900;2022-12-07T14:46:33;23.40;;;17.92;;
22284;SDS011;11311;52.192;20.900;2022-12-07T14:49:02;29.67;;;22.42;;
22284;SDS011;11311;52.192;20.900;2022-12-07T14:51:52;30.10;;;22.38;;
22284;SDS011;11311;52.192;20.900;2022-12-07T14:57:11;25.52;;;18.65;;
22284;SDS011;11311;52.192;20.900;2022-12-07T14:59:39;27.98;;;21.63;;
22284;SDS011;11311;52.192;20.900;2022-12-07T15:02:12;27.65;;;20.58;;
22284;SDS011;11311;52.192;20.900;2022-12-07T15:04:42;17.83;;;13.80;;
22284;SDS011;11311;52.192;20.900;2022-12-07T15:07:14;29.85;;;19.48;;
22284;SDS011;11311;52.192;20.900;2022-12-07T15:09:46;16.83;;;12.38;;
22284;SDS011;11311;52.192;20.900;2022-12-07T15:12:14;19.23;;;14.68;;
22284;SDS011;11311;52.192;20.900;2022-12-07T15:14:43;24.42;;;16.52;;
22284;SDS011;11311;52.192;20.900;2022-12-07T15:17:12;26.55;;;20.70;;
22284;SDS011;11311;52.192;20.900;2022-12-07T15:19:57;17.88;;;13.55;;
22284;SDS011;11311;52.192;20.900;2022-12-07T15:22:27;19.85;;;14.23;;
22284;SDS011;11311;52.192;20.900;2022-12-07T15:25:04;22.75;;;14.40;;
22284;SDS011;11311;52.192;20.900;2022-12-07T15:27:33;14.80;;;11.65;;
22284;SDS011;11311;52.192;20.900;2022-12-07T15:30:02;27.38;;;19.40;;
22284;SDS011;11311;52.192;20.900;2022-12-07T15:32:32;18.50;;;15.75;;
22284;SDS011;11311;52.192;20.900;2022-12-07T15:35:01;30.85;;;21.15;;
22284;SDS011;11311;52.192;20.900;2022-12-07T15:37:31;19.15;;;13.05;;
22284;SDS011;11311;52.192;20.900;2022-12-07T15:40:00;23.05;;;17.75;;
22284;SDS011;11311;52.192;20.900;2022-12-07T15:42:33;26.30;;;19.52;;
22284;SDS011;11311;52.192;20.900;2022-12-07T15:45:03;29.70;;;19.00;;
22284;SDS011;11311;52.192;20.900;2022-12-07T15:47:34;20.85;;;16.33;;
22284;SDS011;11311;52.192;20.900;2022-12-07T15:50:24;30.05;;;19.65;;